createdAt,value
2023-03-29T00:00:15.860Z,2.05
2023-03-29T00:02:48.602Z,2.05
2023-03-29T00:05:18.654Z,2.05
2023-03-29T00:07:46.963Z,1.99
2023-03-29T00:10:16.490Z,1.93
2023-03-29T00:12:44.549Z,1.86
2023-03-29T00:15:13.277Z,1.85
2023-03-29T00:17:41.631Z,1.81
2023-03-29T00:20:11.251Z,1.76
2023-03-29T00:22:42.099Z,1.73
2023-03-29T00:25:11.485Z,1.69
2023-03-29T00:27:42.563Z,1.71
2023-03-29T00:30:14.141Z,1.65
2023-03-29T00:32:43.703Z,1.68
2023-03-29T00:35:12.376Z,1.65
2023-03-29T00:37:43.781Z,1.66
2023-03-29T00:40:12.880Z,1.69
2023-03-29T00:42:45.522Z,1.66
2023-03-29T00:45:22.509Z,1.66
2023-03-29T00:47:52.957Z,1.64
2023-03-29T00:50:26.027Z,1.64
2023-03-29T00:52:58.581Z,1.61
2023-03-29T00:55:29.889Z,1.61
2023-03-29T00:58:00.879Z,1.61
2023-03-29T01:00:32.964Z,1.61
2023-03-29T01:03:03.547Z,1.61
2023-03-29T01:05:37.696Z,1.59
2023-03-29T01:08:07.819Z,1.62
2023-03-29T01:10:38.910Z,1.64
2023-03-29T01:13:11.876Z,1.66
2023-03-29T01:15:42.181Z,1.68
2023-03-29T01:18:11.344Z,1.68
2023-03-29T01:20:46.276Z,1.71
2023-03-29T01:23:27.914Z,1.75
2023-03-29T01:26:02.997Z,1.81
2023-03-29T01:28:35.459Z,1.82
2023-03-29T01:31:08.403Z,1.86
2023-03-29T01:33:40.223Z,1.91
2023-03-29T01:36:13.960Z,1.96
2023-03-29T01:38:47.669Z,1.98
2023-03-29T01:41:15.828Z,2.01
2023-03-29T01:43:50.291Z,2.03
2023-03-29T01:46:23.581Z,2.06
2023-03-29T01:48:55.476Z,2.10
2023-03-29T01:51:26.569Z,2.10
2023-03-29T01:53:58.873Z,2.10
2023-03-29T01:56:29.429Z,2.12
2023-03-29T01:59:02.251Z,2.14
2023-03-29T02:01:33.152Z,2.19
2023-03-29T02:04:06.960Z,2.30
2023-03-29T02:06:36.282Z,2.37
2023-03-29T02:09:05.503Z,2.38
2023-03-29T02:11:34.887Z,2.44
2023-03-29T02:14:06.870Z,2.44
2023-03-29T02:16:39.623Z,2.48
2023-03-29T02:19:09.177Z,2.51
2023-03-29T02:21:41.413Z,2.47
2023-03-29T02:24:10.211Z,2.52
2023-03-29T02:26:38.846Z,2.51
2023-03-29T02:29:08.201Z,2.44
2023-03-29T02:31:39.956Z,2.40
2023-03-29T02:34:13.005Z,2.36
2023-03-29T02:36:43.200Z,2.24
2023-03-29T02:39:17.466Z,2.19
2023-03-29T02:41:48.413Z,2.12
2023-03-29T02:44:21.555Z,2.05
2023-03-29T02:46:51.845Z,2.03
2023-03-29T02:49:21.944Z,1.96
2023-03-29T02:51:52.792Z,1.95
2023-03-29T02:54:23.539Z,1.93
2023-03-29T02:56:58.661Z,1.91
2023-03-29T02:59:29.815Z,1.87
2023-03-29T03:01:58.596Z,1.87
2023-03-29T03:04:28.412Z,1.86
2023-03-29T03:06:58.423Z,1.81
2023-03-29T03:09:27.903Z,1.79
2023-03-29T03:11:56.147Z,1.79
2023-03-29T03:14:24.777Z,1.75
2023-03-29T03:16:55.395Z,1.78
2023-03-29T03:19:24.119Z,1.76
2023-03-29T03:21:54.781Z,1.73
2023-03-29T03:24:25.789Z,1.69
2023-03-29T03:26:54.518Z,1.69
2023-03-29T03:29:23.570Z,1.72
2023-03-29T03:31:53.828Z,1.69
2023-03-29T03:34:23.835Z,1.71
2023-03-29T03:36:54.604Z,1.73
2023-03-29T03:39:23.012Z,1.69
2023-03-29T03:41:51.443Z,1.68
2023-03-29T03:44:20.102Z,1.69
2023-03-29T03:46:49.002Z,1.69
2023-03-29T03:49:17.304Z,1.69
2023-03-29T03:51:47.095Z,1.69
2023-03-29T03:54:15.384Z,1.68
2023-03-29T03:56:44.591Z,1.69
2023-03-29T03:59:15.621Z,1.62
2023-03-29T04:01:44.439Z,1.62
2023-03-29T04:04:12.828Z,1.62
2023-03-29T04:06:43.748Z,1.61
2023-03-29T04:09:13.925Z,1.56
2023-03-29T04:11:41.939Z,1.56
2023-03-29T04:14:10.316Z,1.55
2023-03-29T04:16:38.370Z,1.54
2023-03-29T04:19:08.946Z,1.52
2023-03-29T04:21:37.272Z,1.52
2023-03-29T04:24:07.368Z,1.55
2023-03-29T04:26:37.508Z,1.52
2023-03-29T04:29:05.784Z,1.54
2023-03-29T04:31:34.891Z,1.52
2023-03-29T04:34:03.038Z,1.54
2023-03-29T04:36:31.215Z,1.51
2023-03-29T04:39:01.445Z,1.52
2023-03-29T04:41:30.490Z,1.54
2023-03-29T04:44:00.329Z,1.54
2023-03-29T04:46:29.142Z,1.55
2023-03-29T04:48:58.630Z,1.56
2023-03-29T04:51:27.562Z,1.55
2023-03-29T04:53:55.640Z,1.56
2023-03-29T04:56:24.065Z,1.58
2023-03-29T04:58:52.387Z,1.59
2023-03-29T05:01:22.505Z,1.56
2023-03-29T05:03:50.796Z,1.76
2023-03-29T05:06:19.424Z,2.30
2023-03-29T05:08:47.511Z,2.65
2023-03-29T05:11:16.558Z,2.95
2023-03-29T05:13:45.173Z,3.23
2023-03-29T05:16:13.225Z,3.49
2023-03-29T05:18:42.912Z,3.63
2023-03-29T05:21:11.465Z,3.75
2023-03-29T05:23:39.879Z,3.89
2023-03-29T05:26:09.979Z,3.97
2023-03-29T05:28:39.504Z,4.01
2023-03-29T05:31:08.063Z,4.09
2023-03-29T05:33:37.775Z,4.10
2023-03-29T05:36:09.648Z,4.18
2023-03-29T05:38:38.347Z,4.19
2023-03-29T05:41:07.527Z,4.23
2023-03-29T05:43:36.539Z,3.97
2023-03-29T05:46:06.304Z,3.73
2023-03-29T05:48:38.175Z,3.49
2023-03-29T05:51:08.360Z,3.31
2023-03-29T05:53:38.393Z,3.12
2023-03-29T05:56:08.934Z,2.99
2023-03-29T05:58:38.182Z,2.99
2023-03-29T06:01:12.655Z,2.91
2023-03-29T06:03:40.913Z,2.91
2023-03-29T06:06:10.879Z,2.88
2023-03-29T06:08:38.952Z,2.91
2023-03-29T06:11:09.370Z,2.91
2023-03-29T06:13:38.978Z,2.92
2023-03-29T06:16:14.531Z,2.89
2023-03-29T06:18:42.838Z,2.93
2023-03-29T06:21:14.419Z,2.98
2023-03-29T06:23:43.009Z,2.99
2023-03-29T06:26:14.712Z,3.03
2023-03-29T06:28:43.585Z,3.06
2023-03-29T06:31:13.551Z,3.08
2023-03-29T06:33:43.432Z,3.15
2023-03-29T06:36:16.977Z,3.16
2023-03-29T06:38:45.999Z,3.24
2023-03-29T06:41:16.120Z,3.30
2023-03-29T06:43:44.219Z,3.36
2023-03-29T06:46:13.373Z,3.44
2023-03-29T06:48:42.080Z,3.54
2023-03-29T06:51:13.053Z,3.61
2023-03-29T06:53:43.129Z,3.66
2023-03-29T06:56:11.552Z,3.73
2023-03-29T06:58:41.536Z,3.77
2023-03-29T07:01:11.877Z,3.81
2023-03-29T07:03:41.388Z,3.91
2023-03-29T07:06:11.651Z,4.01
2023-03-29T07:08:44.154Z,4.06
2023-03-29T07:11:13.948Z,4.12
2023-03-29T07:13:43.067Z,4.22
2023-03-29T07:16:13.683Z,4.36
2023-03-29T07:18:44.093Z,4.47
2023-03-29T07:21:13.428Z,4.56
2023-03-29T07:23:43.665Z,4.71
2023-03-29T07:26:12.823Z,4.85
2023-03-29T07:28:46.366Z,4.92
2023-03-29T07:31:18.017Z,4.98
2023-03-29T07:33:48.714Z,5.14
2023-03-29T07:36:16.817Z,5.32
2023-03-29T07:38:48.431Z,5.39
2023-03-29T07:41:16.871Z,5.52
2023-03-29T07:43:45.044Z,5.73
2023-03-29T07:46:14.423Z,5.89
2023-03-29T07:48:44.623Z,6.14
2023-03-29T07:51:16.804Z,6.35
2023-03-29T07:53:54.104Z,6.32
2023-03-29T07:56:22.446Z,6.32
2023-03-29T07:58:51.387Z,6.44
2023-03-29T08:01:20.647Z,6.56
2023-03-29T08:03:49.351Z,6.61
2023-03-29T08:06:18.446Z,6.87
2023-03-29T08:08:47.851Z,7.32
2023-03-29T08:11:18.749Z,7.48
2023-03-29T08:13:53.188Z,7.61
2023-03-29T08:16:23.582Z,7.92
2023-03-29T08:18:54.548Z,8.19
2023-03-29T08:21:22.569Z,8.47
2023-03-29T08:23:52.146Z,8.90
2023-03-29T08:26:20.285Z,9.31
2023-03-29T08:28:48.629Z,9.23
2023-03-29T08:31:17.084Z,9.26
2023-03-29T08:33:49.058Z,9.41
2023-03-29T08:36:18.993Z,9.40
2023-03-29T08:38:50.791Z,9.51
2023-03-29T08:41:31.520Z,9.65
2023-03-29T08:44:08.469Z,9.65
2023-03-29T08:46:40.739Z,9.54
2023-03-29T08:49:11.164Z,9.58
2023-03-29T08:51:45.720Z,9.67
2023-03-29T08:54:16.776Z,9.77
2023-03-29T08:56:48.030Z,10.03
2023-03-29T08:59:20.799Z,10.25
2023-03-29T09:01:50.144Z,10.42
2023-03-29T09:04:24.051Z,10.39
2023-03-29T09:06:55.070Z,10.37
2023-03-29T09:09:24.445Z,10.32
2023-03-29T09:12:06.864Z,10.25
2023-03-29T09:14:47.393Z,10.46
2023-03-29T09:17:27.081Z,10.53
2023-03-29T09:20:00.195Z,10.64
2023-03-29T09:22:35.260Z,10.73
2023-03-29T09:25:10.836Z,10.77
2023-03-29T09:27:45.798Z,11.10
2023-03-29T09:30:21.666Z,11.59
2023-03-29T09:32:56.305Z,11.95
2023-03-29T09:35:26.152Z,12.03
2023-03-29T09:37:55.589Z,12.36
2023-03-29T09:40:28.849Z,12.63
2023-03-29T09:42:58.719Z,12.63
2023-03-29T09:45:27.070Z,12.52
2023-03-29T09:47:58.163Z,12.46
2023-03-29T09:50:32.212Z,12.66
2023-03-29T09:53:00.871Z,12.42
2023-03-29T09:55:32.385Z,12.32
2023-03-29T09:58:14.095Z,12.05
2023-03-29T10:00:44.976Z,12.05
2023-03-29T10:03:19.339Z,11.76
2023-03-29T10:05:48.158Z,11.47
2023-03-29T10:08:22.938Z,11.91
2023-03-29T10:10:52.894Z,12.21
2023-03-29T10:13:28.332Z,12.33
2023-03-29T10:16:03.940Z,12.35
2023-03-29T10:18:35.944Z,12.14
2023-03-29T10:21:06.442Z,12.17
2023-03-29T10:23:37.452Z,12.29
2023-03-29T10:26:08.592Z,12.46
2023-03-29T10:28:40.254Z,12.56
2023-03-29T10:31:10.208Z,12.41
2023-03-29T10:33:39.094Z,12.25
2023-03-29T10:36:09.954Z,12.39
2023-03-29T10:38:39.511Z,12.51
2023-03-29T10:41:10.957Z,12.68
2023-03-29T10:43:44.776Z,12.62
2023-03-29T10:46:14.574Z,12.59
2023-03-29T10:48:47.840Z,12.53
2023-03-29T10:51:17.245Z,12.49
2023-03-29T10:53:45.867Z,12.17
2023-03-29T10:56:32.985Z,12.05
2023-03-29T10:59:12.329Z,11.93
2023-03-29T11:01:48.023Z,11.89
2023-03-29T11:04:23.142Z,11.69
2023-03-29T11:07:02.506Z,11.35
2023-03-29T11:09:46.579Z,11.34
2023-03-29T11:12:19.465Z,11.38
2023-03-29T11:14:57.824Z,11.25
2023-03-29T11:17:34.941Z,11.39
2023-03-29T11:20:14.894Z,11.38
2023-03-29T11:22:51.473Z,11.42
2023-03-29T11:25:33.509Z,11.29
2023-03-29T11:28:07.829Z,11.34
2023-03-29T11:30:43.890Z,11.43
2023-03-29T11:33:21.360Z,11.49
2023-03-29T11:35:56.332Z,11.45
2023-03-29T11:38:30.866Z,11.40
2023-03-29T11:41:04.941Z,11.38
2023-03-29T11:43:36.138Z,11.35
2023-03-29T11:46:11.599Z,11.31
2023-03-29T11:48:45.158Z,11.31
2023-03-29T11:51:17.783Z,11.25
2023-03-29T11:53:53.966Z,11.42
2023-03-29T11:56:29.405Z,11.69
2023-03-29T11:59:05.227Z,11.83
2023-03-29T12:01:40.904Z,11.98
2023-03-29T12:04:17.724Z,12.07
2023-03-29T12:06:55.258Z,12.11
2023-03-29T12:09:33.480Z,11.73
2023-03-29T12:12:08.242Z,11.24
2023-03-29T12:14:47.067Z,11.16
2023-03-29T12:17:20.348Z,11.24
2023-03-29T12:19:52.113Z,11.35
2023-03-29T12:22:23.131Z,11.46
2023-03-29T12:24:55.484Z,11.53
2023-03-29T12:27:29.533Z,11.53
2023-03-29T12:30:10.493Z,11.36
2023-03-29T12:32:48.612Z,11.40
2023-03-29T12:35:26.900Z,11.42
2023-03-29T12:38:02.748Z,11.45
2023-03-29T12:40:41.825Z,11.39
2023-03-29T12:43:17.408Z,11.25
2023-03-29T12:45:48.371Z,11.24
2023-03-29T12:48:24.622Z,11.42
2023-03-29T12:51:00.931Z,11.53
2023-03-29T12:53:33.197Z,11.35
2023-03-29T12:56:13.951Z,11.29
2023-03-29T12:58:44.456Z,11.31
2023-03-29T13:01:25.463Z,11.28
2023-03-29T13:03:59.195Z,11.31
2023-03-29T13:06:31.411Z,11.38
2023-03-29T13:09:02.985Z,11.40
2023-03-29T13:11:41.317Z,11.31
2023-03-29T13:14:14.799Z,11.24
2023-03-29T13:16:47.394Z,11.29
2023-03-29T13:19:27.649Z,11.25
2023-03-29T13:22:06.896Z,11.12
2023-03-29T13:24:57.297Z,11.16
2023-03-29T13:27:32.463Z,11.19
2023-03-29T13:30:24.317Z,11.10
2023-03-29T13:32:59.827Z,11.15
2023-03-29T13:35:37.805Z,11.21
2023-03-29T13:38:18.620Z,11.35
2023-03-29T13:41:01.710Z,11.39
2023-03-29T13:43:40.929Z,11.52
2023-03-29T13:46:22.436Z,11.47
2023-03-29T13:49:07.908Z,11.50
2023-03-29T13:51:41.658Z,11.64
2023-03-29T13:54:18.205Z,11.60
2023-03-29T13:56:58.945Z,11.55
2023-03-29T13:59:33.168Z,11.43
2023-03-29T14:02:04.294Z,11.29
2023-03-29T14:04:37.812Z,11.21
2023-03-29T14:07:12.587Z,11.14
2023-03-29T14:09:45.134Z,11.11
2023-03-29T14:12:15.712Z,11.18
2023-03-29T14:14:58.110Z,11.26
2023-03-29T14:17:28.973Z,11.26
2023-03-29T14:19:58.965Z,11.35
2023-03-29T14:22:34.257Z,11.43
2023-03-29T14:25:06.618Z,11.47
2023-03-29T14:27:38.002Z,11.45
2023-03-29T14:30:21.999Z,11.36
2023-03-29T14:32:52.353Z,11.36
2023-03-29T14:35:24.059Z,11.43
2023-03-29T14:37:57.168Z,11.46
2023-03-29T14:40:29.853Z,11.45
2023-03-29T14:42:57.984Z,11.40
2023-03-29T14:45:26.426Z,11.35
2023-03-29T14:47:54.773Z,11.29
2023-03-29T14:50:26.269Z,11.29
2023-03-29T14:52:57.914Z,11.25
2023-03-29T14:55:26.182Z,11.26
2023-03-29T14:57:56.191Z,11.29
2023-03-29T15:00:28.551Z,11.28
2023-03-29T15:02:59.662Z,11.29
2023-03-29T15:05:38.362Z,11.25
2023-03-29T15:08:12.300Z,11.21
2023-03-29T15:10:45.042Z,11.16
2023-03-29T15:13:18.730Z,11.15
2023-03-29T15:15:48.454Z,11.14
2023-03-29T15:18:19.935Z,11.16
2023-03-29T15:20:51.448Z,11.19
2023-03-29T15:23:23.515Z,11.25
2023-03-29T15:25:57.165Z,11.29
2023-03-29T15:28:28.257Z,11.35
2023-03-29T15:33:36.103Z,11.35
2023-03-29T15:36:07.183Z,11.35
2023-03-29T15:38:43.894Z,11.40
2023-03-29T15:41:14.069Z,11.43
2023-03-29T15:43:42.966Z,11.46
2023-03-29T15:46:14.048Z,11.38
2023-03-29T15:48:42.430Z,11.29
2023-03-29T15:51:11.715Z,11.28
2023-03-29T15:53:41.271Z,11.32
2023-03-29T15:56:11.602Z,11.34
2023-03-29T15:58:40.037Z,11.32
2023-03-29T16:01:13.120Z,11.29
2023-03-29T16:03:41.640Z,11.28
2023-03-29T16:06:12.243Z,11.22
2023-03-29T16:08:41.907Z,11.22
2023-03-29T16:11:10.234Z,11.25
2023-03-29T16:13:39.307Z,11.22
2023-03-29T16:16:09.910Z,11.25
2023-03-29T16:18:38.182Z,11.21
2023-03-29T16:21:09.299Z,11.15
2023-03-29T16:23:41.720Z,11.14
2023-03-29T16:26:11.895Z,11.10
2023-03-29T16:28:40.012Z,11.07
2023-03-29T16:31:10.240Z,11.04
2023-03-29T16:33:40.493Z,11.07
2023-03-29T16:36:09.553Z,11.02
2023-03-29T16:38:38.571Z,10.99
2023-03-29T16:41:08.478Z,10.98
2023-03-29T16:43:38.568Z,10.98
2023-03-29T16:46:08.985Z,10.95
2023-03-29T16:48:37.530Z,10.94
2023-03-29T16:51:06.982Z,10.92
2023-03-29T16:53:35.899Z,10.91
2023-03-29T16:56:05.648Z,10.91
2023-03-29T16:58:36.213Z,10.87
2023-03-29T17:01:12.050Z,10.85
2023-03-29T17:03:41.040Z,10.84
2023-03-29T17:06:09.993Z,10.83
2023-03-29T17:08:39.359Z,10.78
2023-03-29T17:11:08.412Z,10.78
2023-03-29T17:13:38.795Z,10.76
2023-03-29T17:16:07.953Z,10.74
2023-03-29T17:18:36.039Z,10.73
2023-03-29T17:21:05.622Z,10.71
2023-03-29T17:23:34.196Z,10.68
2023-03-29T17:26:02.665Z,10.67
2023-03-29T17:28:36.245Z,10.66
2023-03-29T17:31:08.172Z,10.64
2023-03-29T17:33:36.409Z,10.60
2023-03-29T17:36:05.491Z,10.61
2023-03-29T17:38:34.208Z,10.57
2023-03-29T17:41:03.037Z,10.56
2023-03-29T17:43:31.915Z,10.53
2023-03-29T17:46:01.795Z,10.50
2023-03-29T17:48:32.806Z,10.49
2023-03-29T17:51:00.976Z,10.50
2023-03-29T17:53:28.998Z,10.46
2023-03-29T17:55:56.968Z,10.46
2023-03-29T17:58:25.815Z,10.43
2023-03-29T18:00:53.768Z,10.43
2023-03-29T18:03:22.148Z,10.40
2023-03-29T18:05:51.548Z,10.42
2023-03-29T18:08:20.418Z,10.36
2023-03-29T18:10:48.509Z,10.36
2023-03-29T18:13:16.703Z,10.34
2023-03-29T18:15:47.671Z,10.36
2023-03-29T18:18:16.828Z,10.34
2023-03-29T18:20:45.765Z,10.33
2023-03-29T18:23:15.724Z,10.33
2023-03-29T18:25:43.775Z,10.36
2023-03-29T18:28:11.759Z,10.33
2023-03-29T18:30:40.351Z,10.32
2023-03-29T18:33:08.470Z,10.29
2023-03-29T18:35:36.709Z,10.30
2023-03-29T18:38:04.710Z,10.27
2023-03-29T18:40:34.680Z,10.27
2023-03-29T18:43:02.809Z,10.29
2023-03-29T18:45:30.748Z,10.26
2023-03-29T18:47:58.938Z,10.26
2023-03-29T18:50:27.108Z,10.26
2023-03-29T18:52:55.115Z,10.27
2023-03-29T18:55:23.458Z,10.26
2023-03-29T18:57:53.343Z,10.23
2023-03-29T19:00:21.702Z,10.20
2023-03-29T19:02:50.125Z,10.19
2023-03-29T19:05:18.569Z,10.16
2023-03-29T19:07:46.854Z,10.19
2023-03-29T19:10:14.867Z,10.18
2023-03-29T19:12:43.049Z,10.16
2023-03-29T19:15:13.992Z,10.15
2023-03-29T19:17:42.301Z,10.15
2023-03-29T19:20:12.114Z,10.10
2023-03-29T19:22:41.445Z,10.05
2023-03-29T19:25:10.501Z,10.05
2023-03-29T19:27:38.654Z,10.01
2023-03-29T19:30:08.139Z,9.95
2023-03-29T19:32:37.610Z,9.94
2023-03-29T19:35:09.641Z,9.94
2023-03-29T19:37:37.814Z,9.95
2023-03-29T19:40:08.364Z,9.97
2023-03-29T19:42:36.920Z,9.98
2023-03-29T19:45:06.364Z,9.99
2023-03-29T19:47:36.874Z,9.98
2023-03-29T19:50:07.564Z,10.01
2023-03-29T19:52:36.052Z,9.99
2023-03-29T19:55:06.491Z,9.97
2023-03-29T19:57:34.588Z,9.95
2023-03-29T20:00:05.141Z,9.97
2023-03-29T20:02:33.110Z,9.97
2023-03-29T20:05:01.933Z,9.94
2023-03-29T20:07:31.267Z,9.95
2023-03-29T20:10:00.890Z,9.98
2023-03-29T20:12:29.443Z,9.95
2023-03-29T20:14:57.837Z,9.91
2023-03-29T20:17:26.273Z,9.94
2023-03-29T20:19:55.430Z,9.94
2023-03-29T20:22:26.439Z,9.92
2023-03-29T20:24:56.135Z,9.92
2023-03-29T20:27:24.492Z,9.91
2023-03-29T20:29:52.612Z,9.94
2023-03-29T20:32:21.699Z,9.89
2023-03-29T20:34:52.829Z,9.89
2023-03-29T20:37:23.023Z,9.91
2023-03-29T20:39:51.514Z,9.87
2023-03-29T20:42:28.684Z,9.88
2023-03-29T20:44:56.896Z,9.89
2023-03-29T20:47:27.470Z,9.87
2023-03-29T20:49:55.674Z,9.88
2023-03-29T20:52:25.379Z,9.89
2023-03-29T20:54:53.450Z,9.92
2023-03-29T20:57:22.979Z,9.91
2023-03-29T20:59:51.065Z,9.91
2023-03-29T21:02:21.325Z,9.91
2023-03-29T21:04:54.155Z,9.89
2023-03-29T21:07:22.420Z,9.89
2023-03-29T21:09:50.615Z,9.91
2023-03-29T21:12:20.382Z,9.92
2023-03-29T21:14:50.657Z,9.92
2023-03-29T21:17:18.642Z,9.92
2023-03-29T21:19:46.802Z,9.95
2023-03-29T21:22:15.179Z,9.94
2023-03-29T21:24:43.353Z,9.94
2023-03-29T21:27:11.623Z,9.91
2023-03-29T21:29:39.622Z,9.88
2023-03-29T21:32:09.086Z,9.91
2023-03-29T21:34:37.055Z,9.89
2023-03-29T21:37:05.520Z,9.88
2023-03-29T21:39:33.568Z,9.88
2023-03-29T21:42:02.021Z,9.87
2023-03-29T21:44:32.507Z,9.85
2023-03-29T21:47:02.031Z,9.87
2023-03-29T21:49:32.645Z,9.81
2023-03-29T21:52:00.590Z,9.84
2023-03-29T21:54:29.780Z,9.82
2023-03-29T21:56:57.831Z,9.79
2023-03-29T21:59:27.752Z,9.78
2023-03-29T22:01:55.878Z,9.78
2023-03-29T22:04:36.032Z,9.78
2023-03-29T22:07:08.287Z,9.75
2023-03-29T22:09:36.665Z,9.77
2023-03-29T22:12:05.917Z,9.77
2023-03-29T22:14:36.003Z,9.75
2023-03-29T22:17:05.962Z,9.73
2023-03-29T22:19:38.840Z,9.75
2023-03-29T22:22:14.006Z,9.75
2023-03-29T22:24:42.596Z,9.73
2023-03-29T22:27:11.069Z,9.73
2023-03-29T22:29:39.545Z,9.74
2023-03-29T22:32:08.756Z,9.75
2023-03-29T22:34:36.828Z,9.77
2023-03-29T22:37:05.056Z,9.74
2023-03-29T22:39:36.913Z,9.77
2023-03-29T22:42:07.111Z,9.71
2023-03-29T22:44:36.300Z,9.71
2023-03-29T22:47:04.826Z,9.68
2023-03-29T22:49:32.850Z,9.68
2023-03-29T22:52:02.815Z,9.65
2023-03-29T22:54:31.389Z,9.62
2023-03-29T22:57:00.916Z,9.60
2023-03-29T22:59:29.030Z,9.58
2023-03-29T23:01:58.778Z,9.55
2023-03-29T23:04:26.845Z,9.50
2023-03-29T23:06:54.939Z,9.47
2023-03-29T23:09:22.965Z,9.46
2023-03-29T23:11:51.048Z,9.46
2023-03-29T23:14:20.514Z,9.44
2023-03-29T23:16:50.429Z,9.41
2023-03-29T23:19:18.606Z,9.39
2023-03-29T23:21:46.742Z,9.37
2023-03-29T23:24:18.993Z,9.36
2023-03-29T23:26:49.235Z,9.36
2023-03-29T23:29:17.695Z,9.36
2023-03-29T23:31:47.741Z,9.33
2023-03-29T23:34:15.888Z,9.31
2023-03-29T23:36:43.925Z,9.29
2023-03-29T23:39:12.033Z,9.24
2023-03-29T23:41:40.489Z,9.23
2023-03-29T23:44:08.648Z,9.23
2023-03-29T23:46:36.705Z,9.23
2023-03-29T23:49:06.560Z,9.24
2023-03-29T23:51:35.106Z,9.26
2023-03-29T23:54:03.451Z,9.26
2023-03-29T23:56:31.613Z,9.27
2023-03-29T23:58:59.776Z,9.26
